Time;durP1;ratioP1;P1;durP2;ratioP2;P2;SDS_P1;SDS_P2;PMS_P1;PMS_P2;Temp;Humidity;BMP_temperature;BMP_pressure;BME280_temperature;BME280_humidity;BME280_pressure;Samples;Min_cycle;Max_cycle;Signal;HPM_P1;HPM_P2
2022/04/26 03:36:22;;;;;;;13.00;11.70;;;;;;;14.75;62.21;97003.59;5057347;28;20498;-70
2022/04/26 03:38:48;;;;;;;14.37;11.80;;;;;;;14.76;62.16;96999.16;5056985;28;20481;-71
2022/04/26 03:41:14;;;;;;;16.37;11.57;;;;;;;14.76;61.97;97005.22;5069036;28;20179;-71
2022/04/26 03:43:40;;;;;;;12.27;10.70;;;;;;;14.70;62.25;97004.16;5071272;28;20186;-71
2022/04/26 03:46:05;;;;;;;13.50;12.00;;;;;;;14.77;62.29;97006.06;5071954;28;20433;-69
2022/04/26 03:48:31;;;;;;;12.93;11.63;;;;;;;14.69;62.20;97007.78;5071632;28;20501;-70
2022/04/26 03:50:56;;;;;;;14.20;12.80;;;;;;;14.69;62.59;97002.50;5071651;28;20560;-70
2022/04/26 03:53:22;;;;;;;14.43;12.93;;;;;;;14.72;62.36;97004.78;5071312;28;20188;-70
2022/04/26 03:55:47;;;;;;;14.63;12.60;;;;;;;14.68;62.28;97002.72;5071893;28;20265;-69
2022/04/26 03:58:13;;;;;;;14.13;12.63;;;;;;;14.64;62.35;97009.31;5071708;28;20259;-69
2022/04/26 04:00:38;;;;;;;15.27;13.53;;;;;;;14.69;62.46;97014.91;5075656;28;20575;-70
2022/04/26 04:03:04;;;;;;;15.60;13.80;;;;;;;14.70;62.26;97016.53;5075442;28;20236;-72
2022/04/26 04:05:30;;;;;;;14.80;13.17;;;;;;;14.73;62.18;97024.09;5069638;28;20231;-70
2022/04/26 04:07:55;;;;;;;19.57;15.60;;;;;;;14.69;61.98;97034.16;5071533;28;20208;-70
2022/04/26 04:10:21;;;;;;;16.20;14.23;;;;;;;14.71;62.05;97032.16;5075766;28;20186;-70
2022/04/26 04:12:46;;;;;;;16.77;15.00;;;;;;;14.73;61.88;97026.72;5070112;28;20649;-70
2022/04/26 04:15:12;;;;;;;17.00;13.80;;;;;;;14.74;61.75;97029.16;5071223;28;20194;-70
2022/04/26 04:17:37;;;;;;;13.97;12.47;;;;;;;14.78;61.58;97037.53;5070518;28;20213;-69
2022/04/26 04:20:03;;;;;;;14.80;13.30;;;;;;;14.77;61.57;97037.72;5070501;28;20592;-69
2022/04/26 04:22:28;;;;;;;16.03;14.40;;;;;;;14.75;61.98;97048.44;5071351;28;20910;-70
2022/04/26 04:24:54;;;;;;;15.50;13.90;;;;;;;14.73;61.78;97047.81;5066829;28;20486;-70
2022/04/26 04:27:19;;;;;;;14.00;12.70;;;;;;;14.69;61.97;97044.72;5070837;28;20224;-70
2022/04/26 04:29:45;;;;;;;13.13;11.83;;;;;;;14.69;61.78;97049.19;5070722;28;20752;-70
2022/04/26 04:32:10;;;;;;;13.97;12.00;;;;;;;14.73;61.69;97047.81;5070981;28;20183;-71
2022/04/26 04:34:36;;;;;;;13.93;12.43;;;;;;;14.78;61.31;97053.34;5070270;28;20645;-71
2022/04/26 04:37:02;;;;;;;15.23;13.10;;;;;;;14.75;61.40;97053.72;5070836;28;20224;-71
2022/04/26 04:39:27;;;;;;;13.40;12.03;;;;;;;14.79;61.03;97055.00;5078835;28;20252;-70
2022/04/26 04:41:53;;;;;;;13.73;12.00;;;;;;;14.70;61.27;97056.09;5068296;28;20210;-71
2022/04/26 04:44:21;;;;;;;15.70;13.73;;;;;;;14.64;61.18;97046.22;5070573;28;20667;-70
2022/04/26 04:46:47;;;;;;;14.40;12.50;;;;;;;14.53;61.60;97043.06;5070582;28;20186;-70
2022/04/26 04:49:13;;;;;;;15.73;12.17;;;;;;;14.47;61.90;97054.34;5071155;28;20427;-72
2022/04/26 04:51:38;;;;;;;13.87;12.40;;;;;;;14.50;62.26;97046.03;5069843;28;20239;-72
2022/04/26 04:54:04;;;;;;;13.60;12.10;;;;;;;14.51;61.96;97044.25;5071001;28;20182;-71
2022/04/26 04:56:30;;;;;;;14.13;12.63;;;;;;;14.50;62.40;97045.25;5070209;28;20645;-72
2022/04/26 04:58:56;;;;;;;14.43;12.93;;;;;;;14.57;62.02;97052.25;5070296;28;20214;-71
2022/04/26 05:01:22;;;;;;;13.67;12.37;;;;;;;14.62;62.42;97045.63;5079036;28;20782;-70
2022/04/26 05:03:47;;;;;;;14.30;12.80;;;;;;;14.61;62.25;97038.72;5063046;28;20250;-70
2022/04/26 05:06:16;;;;;;;19.67;13.60;;;;;;;14.54;62.29;97046.53;5065583;28;20190;-71
2022/04/26 05:08:43;;;;;;;16.20;14.33;;;;;;;14.52;62.54;97045.88;5062077;28;20206;-70
2022/04/26 05:11:08;;;;;;;16.90;13.60;;;;;;;14.51;62.76;97058.22;5067852;28;20433;-70
2022/04/26 05:13:34;;;;;;;15.63;13.50;;;;;;;14.52;62.49;97054.59;5070274;28;20764;-70
2022/04/26 05:16:00;;;;;;;15.43;13.73;;;;;;;14.38;62.71;97050.13;5070149;28;20606;-70
2022/04/26 05:18:27;;;;;;;14.27;12.77;;;;;;;14.42;62.99;97059.31;5068967;28;20206;-69
2022/04/26 05:20:52;;;;;;;15.03;13.43;;;;;;;14.50;62.65;97043.41;5069897;28;20524;-70
2022/04/26 05:26:01;;;;;;;14.80;12.80;;;;;;;14.28;63.25;97056.47;5070330;28;20210;-69
2022/04/26 05:28:27;;;;;;;16.97;14.87;;;;;;;14.42;62.97;97059.31;5069521;28;20444;-71
2022/04/26 05:30:53;;;;;;;15.63;14.10;;;;;;;14.52;62.64;97059.88;5068387;28;20186;-69
2022/04/26 05:33:19;;;;;;;15.57;13.77;;;;;;;14.60;62.28;97061.59;5069887;28;20638;-69
2022/04/26 05:35:44;;;;;;;14.80;13.30;;;;;;;14.63;62.50;97061.25;5070104;28;20417;-70
2022/04/26 05:38:10;;;;;;;14.73;13.23;;;;;;;14.66;62.29;97065.34;5064717;28;20547;-70
2022/04/26 05:40:35;;;;;;;15.10;13.50;;;;;;;14.68;62.51;97063.38;5064666;28;20190;-70
2022/04/26 05:43:01;;;;;;;15.00;13.30;;;;;;;14.74;62.14;97057.38;5070207;28;20323;-70
2022/04/26 05:45:27;;;;;;;16.43;14.73;;;;;;;14.73;62.03;97074.22;5069680;28;20263;-71
2022/04/26 05:47:54;;;;;;;15.73;13.20;;;;;;;14.74;61.76;97081.94;5070455;28;20206;-70
2022/04/26 05:50:19;;;;;;;17.60;15.27;;;;;;;14.76;61.22;97079.09;5066650;28;20178;-69
2022/04/26 05:52:45;;;;;;;15.97;14.37;;;;;;;14.77;61.73;97069.38;5070761;28;20768;-70
2022/04/26 05:55:10;;;;;;;16.63;14.70;;;;;;;14.73;61.87;97077.66;5070370;28;20174;-69
2022/04/26 05:57:40;;;;;;;17.60;15.70;;;;;;;14.67;62.12;97066.97;5070066;28;20210;-70
2022/04/26 06:00:13;;;;;;;17.37;15.47;;;;;;;14.59;62.56;97084.53;5072940;28;20662;-69
2022/04/26 06:02:39;;;;;;;16.17;14.47;;;;;;;14.59;62.42;97089.81;5073822;28;20512;-69
2022/04/26 06:05:05;;;;;;;17.53;15.43;;;;;;;14.72;61.97;97091.84;5074277;28;20471;-70
2022/04/26 06:07:31;;;;;;;16.53;14.00;;;;;;;14.81;61.88;97084.66;5072735;28;20436;-70
2022/04/26 06:09:57;;;;;;;18.63;15.00;;;;;;;14.84;61.67;97081.66;5079823;28;20220;-72
2022/04/26 06:12:26;;;;;;;16.13;13.80;;;;;;;14.85;61.38;97075.38;5076533;28;20452;-71
2022/04/26 06:14:53;;;;;;;16.37;13.90;;;;;;;14.83;61.42;97080.03;5074259;28;20208;-69
2022/04/26 06:17:19;;;;;;;19.60;14.10;;;;;;;14.85;61.78;97080.66;5073829;28;20488;-70
2022/04/26 06:19:44;;;;;;;16.43;14.63;;;;;;;14.89;61.64;97087.19;5070770;28;20519;-70
2022/04/26 06:22:09;;;;;;;18.20;14.03;;;;;;;14.93;61.29;97092.13;5074558;28;20320;-70
2022/04/26 06:24:35;;;;;;;15.00;12.50;;;;;;;14.85;60.82;97085.94;5073899;28;20286;-71
2022/04/26 06:27:02;;;;;;;18.40;12.70;;;;;;;14.81;60.57;97074.09;5082392;28;20344;-70
2022/04/26 06:29:28;;;;;;;14.50;12.50;;;;;;;14.84;60.66;97094.84;5073690;28;20210;-71
2022/04/26 06:31:54;;;;;;;23.40;13.60;;;;;;;14.81;60.54;97095.22;5072981;28;20459;-71
2022/04/26 06:34:19;;;;;;;14.50;12.67;;;;;;;14.85;60.99;97099.13;5074108;28;20179;-71
2022/04/26 06:36:45;;;;;;;14.13;12.83;;;;;;;14.85;61.27;97085.94;5074010;28;20698;-70
2022/04/26 06:39:11;;;;;;;19.70;12.60;;;;;;;14.92;61.40;97085.19;5072514;28;20255;-70
2022/04/26 06:41:36;;;;;;;15.40;13.07;;;;;;;15.04;61.04;97099.56;5071987;28;20276;-70
2022/04/26 06:44:02;;;;;;;12.23;11.03;;;;;;;15.05;60.56;97103.84;5072025;28;20183;-70
2022/04/26 06:46:28;;;;;;;14.03;12.50;;;;;;;15.01;60.35;97092.00;5055541;28;20187;-69
2022/04/26 06:48:57;;;;;;;13.83;12.43;;;;;;;14.82;60.82;97096.84;5073213;28;20448;-69
2022/04/26 06:51:22;;;;;;;12.17;10.97;;;;;;;14.84;61.34;97094.84;5070507;28;20192;-71
2022/04/26 06:53:48;;;;;;;16.23;12.90;;;;;;;14.95;61.27;97096.19;5071977;28;20424;-69
2022/04/26 06:56:13;;;;;;;15.00;13.37;;;;;;;15.02;61.88;97102.41;5076969;28;20264;-71
2022/04/26 06:58:39;;;;;;;14.97;12.70;;;;;;;15.15;61.90;97112.28;5075481;28;20278;-71
2022/04/26 07:01:04;;;;;;;14.27;12.77;;;;;;;15.19;61.21;97108.28;5067976;28;20198;-70
2022/04/26 07:03:30;;;;;;;14.30;12.80;;;;;;;15.22;61.49;97104.47;5070838;28;20206;-70
2022/04/26 07:05:55;;;;;;;17.23;11.47;;;;;;;15.18;61.34;97101.38;5079261;28;20662;-69
2022/04/26 07:08:21;;;;;;;15.90;13.57;;;;;;;15.14;61.95;97107.22;5072797;28;20202;-69
2022/04/26 07:10:46;;;;;;;13.27;11.20;;;;;;;15.19;61.59;97105.66;5072720;28;20194;-70
2022/04/26 07:13:15;;;;;;;12.47;11.30;;;;;;;15.26;61.57;97094.34;5075323;28;20182;-70
2022/04/26 07:15:41;;;;;;;11.50;10.27;;;;;;;15.37;61.30;97093.88;5072954;28;20674;-70
2022/04/26 07:18:06;;;;;;;10.43;9.43;;;;;;;15.47;60.24;97090.94;5073141;28;20520;-69
2022/04/26 07:20:31;;;;;;;9.53;8.63;;;;;;;15.60;60.23;97093.72;5069450;28;20182;-70
2022/04/26 07:22:57;;;;;;;10.60;9.50;;;;;;;15.82;59.74;97088.44;5072876;28;20243;-70
2022/04/26 07:25:22;;;;;;;9.77;8.87;;;;;;;16.12;59.69;97081.25;5072368;28;20213;-71
2022/04/26 07:27:48;;;;;;;11.60;8.57;;;;;;;16.40;58.58;97069.84;5072649;28;20206;-70
2022/04/26 07:30:13;;;;;;;9.30;8.50;;;;;;;16.61;58.17;97068.16;5074607;28;20184;-70
2022/04/26 07:35:23;;;;;;;9.20;8.30;;;;;;;16.67;57.34;97075.31;5070647;28;20177;-70
2022/04/26 07:37:48;;;;;;;7.43;6.73;;;;;;;16.67;56.49;97077.16;5071070;28;20907;-70
2022/04/26 07:40:14;;;;;;;8.70;7.80;;;;;;;16.52;55.74;97086.00;5072398;28;20182;-70
2022/04/26 07:42:39;;;;;;;8.60;7.80;;;;;;;16.35;54.95;97085.50;5072216;28;20183;-69
2022/04/26 07:45:06;;;;;;;8.60;7.80;;;;;;;16.33;54.37;97084.84;5077738;28;20707;-69
2022/04/26 07:47:31;;;;;;;9.13;8.00;;;;;;;16.40;54.33;97095.50;5073285;28;20286;-70
2022/04/26 07:50:01;;;;;;;8.20;7.40;;;;;;;16.35;54.33;97090.78;5069992;28;20450;-70
2022/04/26 07:52:28;;;;;;;8.73;8.03;;;;;;;16.27;54.07;97098.84;5071776;28;20344;-70
2022/04/26 07:54:53;;;;;;;8.53;7.73;;;;;;;16.25;54.36;97112.25;5072262;28;20423;-69
2022/04/26 07:57:19;;;;;;;9.93;8.03;;;;;;;16.24;54.89;97104.53;5071826;28;20456;-69
2022/04/26 07:59:44;;;;;;;10.03;7.60;;;;;;;16.23;55.54;97102.88;5073708;28;20178;-70
2022/04/26 08:02:10;;;;;;;9.20;7.77;;;;;;;16.26;54.64;97119.19;5079883;28;20554;-70
2022/04/26 08:04:36;;;;;;;8.30;7.50;;;;;;;16.28;53.97;97133.03;5073770;28;20301;-70
2022/04/26 08:07:02;;;;;;;9.30;8.23;;;;;;;16.23;54.16;97132.78;5073998;28;20245;-70
2022/04/26 08:09:28;;;;;;;11.97;7.87;;;;;;;16.27;54.06;97131.41;5070855;28;20436;-69
2022/04/26 08:11:53;;;;;;;8.93;8.13;;;;;;;16.32;54.51;97137.94;5071937;28;20468;-69
2022/04/26 08:14:20;;;;;;;11.10;8.37;;;;;;;16.24;54.12;97149.47;5071431;28;20186;-69
2022/04/26 08:16:45;;;;;;;9.50;7.80;;;;;;;16.20;53.97;97151.66;5072699;28;20247;-71
2022/04/26 08:19:11;;;;;;;8.63;7.60;;;;;;;16.12;53.15;97152.63;5076601;28;20423;-71
2022/04/26 08:21:38;;;;;;;8.97;8.07;;;;;;;16.15;53.23;97159.34;5078205;28;20555;-70
2022/04/26 08:29:31;;;;;;;7.60;6.90;;;;;;;16.21;53.95;97168.34;5072478;28;20428;-70
2022/04/26 08:31:57;;;;;;;9.60;7.77;;;;;;;16.21;53.26;97174.44;5072376;28;20447;-69
2022/04/26 08:34:23;;;;;;;8.70;7.60;;;;;;;16.28;52.75;97169.22;5071321;28;20701;-69
2022/04/26 08:36:48;;;;;;;8.93;7.53;;;;;;;16.40;53.12;97173.00;5071179;28;20198;-69
2022/04/26 08:39:14;;;;;;;8.37;7.40;;;;;;;16.53;53.09;97179.41;5079773;28;20443;-70
2022/04/26 08:41:40;;;;;;;8.40;7.57;;;;;;;16.66;53.09;97171.56;5070880;28;20217;-69
2022/04/26 08:44:09;;;;;;;7.77;6.97;;;;;;;16.72;52.97;97168.16;5070995;28;20269;-70
2022/04/26 08:52:06;;;;;;;10.40;7.40;;;;;;;17.06;51.77;97184.31;5071074;28;20425;-69
2022/04/26 08:54:32;;;;;;;9.50;7.70;;;;;;;17.11;51.40;97183.72;5070827;28;20474;-69
2022/04/26 08:56:58;;;;;;;9.97;7.53;;;;;;;17.13;51.41;97184.34;5069000;28;20431;-69
2022/04/26 08:59:24;;;;;;;9.17;7.67;;;;;;;17.12;51.58;97186.16;5072375;28;20516;-69
2022/04/26 09:01:50;;;;;;;8.53;7.73;;;;;;;17.10;51.38;97197.97;5071364;28;20449;-69
2022/04/26 09:04:17;;;;;;;7.57;6.70;;;;;;;16.98;50.76;97190.56;5070676;28;20699;-70
2022/04/26 09:06:48;;;;;;;8.00;7.20;;;;;;;16.86;50.85;97197.38;5070862;28;20186;-69
2022/04/26 09:09:17;;;;;;;8.20;7.03;;;;;;;16.77;49.60;97202.00;5070551;28;20916;-69
2022/04/26 09:11:43;;;;;;;9.80;7.57;;;;;;;16.63;49.13;97201.09;5062626;28;20433;-69
2022/04/26 09:14:28;;;;;;;7.80;7.00;;;;;;;16.52;48.83;97206.84;5070989;28;20918;-70
2022/04/26 09:17:07;;;;;;;8.00;7.20;;;;;;;16.50;48.45;97212.34;5070854;28;20427;-69
2022/04/26 09:19:53;;;;;;;8.30;7.37;;;;;;;16.47;48.35;97212.72;5067365;28;20916;-69
2022/04/26 09:22:20;;;;;;;8.63;7.00;;;;;;;16.52;48.38;97212.16;5070812;28;20428;-69
2022/04/26 09:24:58;;;;;;;8.47;7.33;;;;;;;16.56;47.79;97213.41;5070843;28;20456;-69
2022/04/26 09:27:25;;;;;;;8.00;7.20;;;;;;;16.58;47.81;97211.41;5070641;28;20436;-69
2022/04/26 09:29:51;;;;;;;8.83;7.27;;;;;;;16.79;47.24;97202.63;5064543;28;20447;-70
2022/04/26 09:32:16;;;;;;;8.50;7.60;;;;;;;16.97;47.61;97209.28;5070491;28;20421;-69
2022/04/26 09:34:42;;;;;;;7.93;6.80;;;;;;;17.25;47.43;97208.44;5071424;28;20183;-70
2022/04/26 09:37:08;;;;;;;7.60;6.90;;;;;;;17.54;45.26;97199.41;5074856;28;20224;-70
2022/04/26 09:39:33;;;;;;;9.30;6.70;;;;;;;17.84;44.49;97207.09;5077019;28;20416;-70
2022/04/26 09:41:59;;;;;;;7.83;6.10;;;;;;;17.91;43.11;97212.41;5080497;28;20185;-70
2022/04/26 09:44:35;;;;;;;7.17;6.47;;;;;;;18.32;42.10;97216.84;5077752;28;20201;-69
2022/04/26 09:47:00;;;;;;;10.40;5.90;;;;;;;18.81;41.57;97214.00;5079878;28;20256;-69
2022/04/26 09:49:26;;;;;;;6.63;5.80;;;;;;;19.16;39.16;97217.25;5071395;28;20429;-70
2022/04/26 09:51:59;;;;;;;7.60;5.50;;;;;;;19.52;39.62;97203.72;5056627;28;20679;-70
2022/04/26 09:54:25;;;;;;;5.33;4.83;;;;;;;19.89;39.49;97210.13;5074254;28;20186;-69
2022/04/26 09:56:51;;;;;;;7.23;5.80;;;;;;;19.88;38.05;97213.00;5074249;28;20463;-69
2022/04/26 09:59:30;;;;;;;6.50;5.90;;;;;;;19.81;38.10;97213.00;5075309;28;20424;-69
2022/04/26 10:01:57;;;;;;;6.47;5.73;;;;;;;19.72;37.66;97211.59;5074456;28;20431;-69
2022/04/26 10:04:26;;;;;;;6.43;5.10;;;;;;;19.71;38.99;97217.94;5074078;28;20478;-69
2022/04/26 10:06:58;;;;;;;15.43;5.80;;;;;;;19.33;36.36;97216.81;5074286;28;20519;-71
2022/04/26 10:09:24;;;;;;;6.00;5.40;;;;;;;19.33;37.36;97217.66;5072215;28;20513;-69
2022/04/26 10:11:53;;;;;;;7.60;5.30;;;;;;;19.27;38.04;97209.69;5073848;28;20428;-70
2022/04/26 10:14:19;;;;;;;5.67;5.03;;;;;;;19.25;38.51;97214.41;5074465;28;20984;-68
2022/04/26 10:16:45;;;;;;;5.37;4.87;;;;;;;19.19;37.98;97211.53;5080797;28;20429;-70
2022/04/26 10:19:12;;;;;;;14.13;5.57;;;;;;;19.12;38.66;97221.38;5070544;28;20211;-70
2022/04/26 10:21:41;;;;;;;6.93;5.07;;;;;;;19.15;39.01;97215.63;5076416;28;20422;-70
2022/04/26 10:24:20;;;;;;;8.13;5.30;;;;;;;19.08;37.72;97211.38;5076612;28;20455;-70
2022/04/26 10:26:46;;;;;;;8.13;5.57;;;;;;;18.99;37.43;97216.88;5066064;28;20428;-69
2022/04/26 10:29:13;;;;;;;6.70;5.10;;;;;;;19.22;37.38;97214.81;5074010;28;20832;-70
2022/04/26 10:31:50;;;;;;;6.60;5.47;;;;;;;19.39;37.62;97210.69;5073562;28;20923;-69
2022/04/26 10:34:18;;;;;;;6.50;4.90;;;;;;;19.82;36.73;97203.16;5074119;28;20417;-69
2022/04/26 10:36:47;;;;;;;5.00;4.20;;;;;;;20.13;35.32;97204.28;5073297;28;20440;-70
2022/04/26 10:39:12;;;;;;;5.37;4.67;;;;;;;20.51;35.01;97204.22;5080568;28;20963;-69
2022/04/26 10:41:39;;;;;;;6.33;4.37;;;;;;;20.49;35.23;97198.28;5073455;28;20478;-69
2022/04/26 10:44:17;;;;;;;8.43;5.00;;;;;;;20.33;33.70;97201.50;5073597;28;20687;-69
2022/04/26 10:47:09;;;;;;;4.87;4.30;;;;;;;20.49;34.05;97198.28;5072332;28;20427;-69
2022/04/26 10:49:43;;;;;;;4.93;3.90;;;;;;;20.54;33.81;97198.47;5067412;28;20846;-69
2022/04/26 10:52:10;;;;;;;8.90;4.37;;;;;;;20.48;34.94;97201.19;5073523;28;20426;-69
2022/04/26 10:55:03;;;;;;;6.33;4.77;;;;;;;20.30;35.46;97204.56;5073285;28;22303;-69
2022/04/26 10:57:31;;;;;;;7.27;4.50;;;;;;;20.15;35.04;97204.88;5072299;28;20998;-69
2022/04/26 11:00:07;;;;;;;5.30;3.97;;;;;;;19.96;33.99;97215.41;5074794;28;20448;-69
2022/04/26 11:02:41;;;;;;;4.73;3.63;;;;;;;19.83;34.33;97215.44;5073389;28;20840;-69
2022/04/26 11:05:12;;;;;;;4.70;4.23;;;;;;;19.65;33.68;97216.94;5074456;28;20448;-69
2022/04/26 11:07:43;;;;;;;5.53;3.83;;;;;;;19.55;32.85;97216.56;5072795;28;20440;-69
2022/04/26 11:10:10;;;;;;;5.53;3.60;;;;;;;19.31;31.80;97217.03;5072695;28;20421;-70
2022/04/26 11:12:40;;;;;;;3.60;3.30;;;;;;;19.12;32.64;97229.34;5072945;28;22504;-70
2022/04/26 11:15:07;;;;;;;4.00;3.70;;;;;;;19.05;33.27;97231.16;5073307;28;20819;-69
2022/04/26 11:17:34;;;;;;;5.80;3.70;;;;;;;19.36;33.65;97227.03;5060575;28;20596;-69
2022/04/26 11:20:06;;;;;;;3.77;3.37;;;;;;;19.77;33.55;97225.91;5060506;28;20475;-70
2022/04/26 11:22:31;;;;;;;4.40;3.30;;;;;;;19.85;32.66;97218.69;5071081;28;20432;-69
2022/04/26 11:30:51;;;;;;;9.83;6.77;;;;;;;21.24;34.99;97236.63;5061873;28;20494;-71
2022/04/26 11:33:25;;;;;;;7.57;6.47;;;;;;;21.13;35.71;97240.81;5061839;28;20443;-70
2022/04/26 11:36:06;;;;;;;10.00;7.20;;;;;;;20.68;35.15;97248.94;5057933;28;20433;-70
2022/04/26 11:38:32;;;;;;;10.00;7.30;;;;;;;20.15;36.21;97245.59;5047650;28;20457;-70
2022/04/26 11:41:01;;;;;;;12.20;8.07;;;;;;;19.66;37.25;97258.44;5055268;28;20453;-69
2022/04/26 11:43:31;;;;;;;8.10;7.30;;;;;;;19.32;37.93;97257.69;5051981;28;20187;-71
2022/04/26 11:45:58;;;;;;;8.83;7.63;;;;;;;18.86;39.20;97260.16;5050391;28;20991;-70
2022/04/26 11:48:33;;;;;;;9.10;7.60;;;;;;;18.63;40.18;97265.06;5056985;28;21108;-71
2022/04/26 11:50:58;;;;;;;10.50;8.00;;;;;;;18.39;40.54;97264.59;5050368;28;20441;-69
2022/04/26 11:53:25;;;;;;;14.80;7.90;;;;;;;18.21;41.01;97268.63;5051164;28;20455;-71
2022/04/26 11:55:52;;;;;;;8.73;7.87;;;;;;;18.34;41.21;97264.38;5057234;28;20201;-71
2022/04/26 11:58:19;;;;;;;10.43;7.60;;;;;;;18.55;41.30;97266.88;5049547;28;20457;-70
2022/04/26 12:00:54;;;;;;;11.50;7.10;;;;;;;18.92;39.61;97263.00;5046980;28;20459;-71
2022/04/26 12:03:20;;;;;;;11.17;7.23;;;;;;;19.16;39.12;97274.88;5036049;28;20450;-71
2022/04/26 12:06:01;;;;;;;9.73;7.10;;;;;;;19.14;38.75;97280.41;5011760;28;20540;-71
2022/04/26 12:08:28;;;;;;;7.73;7.00;;;;;;;19.01;38.72;97288.38;5054133;28;20440;-70
2022/04/26 12:10:53;;;;;;;7.90;7.10;;;;;;;18.83;39.64;97281.81;5072097;28;20431;-71
2022/04/26 12:13:32;;;;;;;7.73;6.93;;;;;;;18.72;40.63;97285.88;5072573;28;20425;-71
2022/04/26 12:16:14;;;;;;;8.83;6.50;;;;;;;18.64;42.72;97287.91;5072798;28;20182;-71
2022/04/26 12:18:51;;;;;;;10.70;6.97;;;;;;;18.54;42.99;97294.41;5071615;28;20441;-68
2022/04/26 12:21:17;;;;;;;7.37;6.13;;;;;;;18.38;42.18;97294.81;5070591;28;20478;-70
2022/04/26 12:23:43;;;;;;;8.87;6.47;;;;;;;18.25;42.15;97291.09;5071583;28;20463;-71
2022/04/26 12:26:09;;;;;;;7.93;6.07;;;;;;;18.19;41.95;97296.38;5071780;28;20460;-71
2022/04/26 12:28:49;;;;;;;6.97;6.27;;;;;;;18.14;42.83;97298.78;5070139;28;20206;-69
2022/04/26 12:31:22;;;;;;;10.17;6.50;;;;;;;18.16;42.86;97297.56;5071743;28;20182;-72
2022/04/26 12:33:51;;;;;;;8.17;7.10;;;;;;;18.13;41.76;97297.16;5064995;28;20425;-70
2022/04/26 12:36:17;;;;;;;8.07;7.27;;;;;;;17.84;42.25;97305.16;5070224;28;20433;-71
2022/04/26 12:38:46;;;;;;;16.17;6.90;;;;;;;17.66;43.36;97308.34;5071455;28;20810;-70
2022/04/26 12:41:12;;;;;;;8.10;6.10;;;;;;;17.39;43.39;97333.84;5071613;28;20190;-70
2022/04/26 12:43:38;;;;;;;5.10;4.60;;;;;;;17.14;44.01;97332.44;5071142;28;20431;-71
2022/04/26 12:46:06;;;;;;;5.50;5.00;;;;;;;17.04;44.00;97334.59;5073059;28;20198;-70
2022/04/26 12:51:25;;;;;;;6.63;5.13;;;;;;;16.71;44.95;97343.81;5069250;28;20439;-70
2022/04/26 12:53:51;;;;;;;6.03;4.73;;;;;;;16.48;44.92;97364.34;5076449;28;20419;-70
2022/04/26 12:56:18;;;;;;;4.40;4.00;;;;;;;16.33;45.66;97370.47;5074589;28;20818;-70
2022/04/26 12:58:46;;;;;;;4.93;3.80;;;;;;;16.28;45.53;97380.75;5074932;28;20443;-69
2022/04/26 13:01:12;;;;;;;10.20;3.83;;;;;;;16.13;45.74;97375.50;5073927;28;20900;-69
2022/04/26 13:03:38;;;;;;;3.03;2.83;;;;;;;16.14;45.12;97379.78;5072543;28;20453;-70
2022/04/26 13:06:11;;;;;;;3.77;3.47;;;;;;;16.11;45.68;97380.97;5069995;28;20280;-69
2022/04/26 13:08:38;;;;;;;3.63;3.33;;;;;;;16.15;46.65;97385.88;5069287;28;20537;-69
2022/04/26 13:11:04;;;;;;;5.47;2.97;;;;;;;16.17;46.28;97394.44;5070201;28;20425;-69
2022/04/26 13:13:30;;;;;;;5.70;3.30;;;;;;;16.32;45.98;97374.13;5071059;28;20454;-70
2022/04/26 13:15:56;;;;;;;3.37;3.03;;;;;;;16.39;46.46;97377.66;5076977;28;20502;-69
2022/04/26 13:18:21;;;;;;;4.03;3.60;;;;;;;16.63;46.98;97378.34;5073490;28;20452;-70
2022/04/26 13:20:47;;;;;;;5.33;3.60;;;;;;;16.89;46.12;97375.16;5068209;28;20182;-70
2022/04/26 13:23:13;;;;;;;5.83;2.60;;;;;;;17.10;45.14;97362.13;5071173;28;20293;-69
2022/04/26 13:25:39;;;;;;;3.90;3.37;;;;;;;17.43;44.72;97362.41;5070457;28;20195;-70
2022/04/26 13:28:06;;;;;;;3.77;3.47;;;;;;;17.90;44.33;97356.59;5071044;28;20459;-70
2022/04/26 13:30:31;;;;;;;3.47;3.13;;;;;;;18.10;44.07;97351.41;5078790;28;20436;-69
2022/04/26 13:32:57;;;;;;;3.90;3.20;;;;;;;18.15;43.34;97354.28;5071293;28;20785;-70
2022/04/26 13:35:22;;;;;;;6.33;3.83;;;;;;;18.21;44.05;97348.19;5075090;28;20222;-70
2022/04/26 13:37:48;;;;;;;8.20;3.20;;;;;;;18.38;43.13;97353.19;5070233;28;20214;-69
2022/04/26 13:40:13;;;;;;;4.63;3.43;;;;;;;18.71;42.67;97342.63;5069313;28;20307;-70
2022/04/26 13:42:39;;;;;;;4.50;3.33;;;;;;;18.98;40.67;97347.22;5071070;28;20541;-70
2022/04/26 13:45:06;;;;;;;2.73;2.53;;;;;;;19.10;39.56;97358.88;5070754;28;20308;-70
2022/04/26 13:47:33;;;;;;;2.97;2.77;;;;;;;19.18;38.15;97357.84;5070662;28;20234;-70
2022/04/26 13:50:00;;;;;;;3.83;2.53;;;;;;;19.19;37.10;97354.97;5070753;28;20552;-70
2022/04/26 13:52:26;;;;;;;2.43;2.23;;;;;;;19.33;36.53;97354.97;5070469;28;20965;-70
2022/04/26 13:54:51;;;;;;;3.33;2.57;;;;;;;19.43;35.87;97358.03;5070679;28;20268;-70
2022/04/26 13:57:17;;;;;;;2.37;2.13;;;;;;;19.61;36.51;97353.94;5070467;28;20297;-70
2022/04/26 13:59:44;;;;;;;2.73;2.50;;;;;;;19.68;36.62;97360.06;5072408;28;20190;-70
2022/04/26 14:02:10;;;;;;;3.20;2.60;;;;;;;19.65;36.35;97358.66;5070721;28;20191;-70
2022/04/26 14:04:35;;;;;;;5.53;2.53;;;;;;;19.62;36.69;97363.56;5071303;28;21305;-70
2022/04/26 14:07:02;;;;;;;4.43;2.30;;;;;;;19.41;35.29;97356.63;5070565;28;20931;-70
2022/04/26 14:09:27;;;;;;;3.00;2.80;;;;;;;19.11;34.15;97357.84;5069847;28;20178;-69
2022/04/26 14:11:56;;;;;;;2.57;2.37;;;;;;;19.03;34.01;97352.72;5070743;28;20427;-70
2022/04/26 14:22:36;;;;;;;5.83;2.70;;;;;;;18.94;36.58;97362.75;5074242;28;20494;-70
2022/04/26 14:25:08;;;;;;;3.37;2.60;;;;;;;18.79;35.37;97356.75;5073966;28;20861;-70
2022/04/26 14:27:38;;;;;;;3.10;2.43;;;;;;;18.83;35.51;97361.44;5073770;28;20245;-70
2022/04/26 14:30:06;;;;;;;2.33;2.10;;;;;;;18.96;34.29;97351.91;5073707;28;20431;-69
2022/04/26 14:32:31;;;;;;;2.10;2.00;;;;;;;19.30;34.86;97356.22;5072471;28;20428;-70
2022/04/26 14:34:57;;;;;;;2.07;1.80;;;;;;;19.35;34.02;97355.59;5073697;28;20466;-69
2022/04/26 14:37:25;;;;;;;1.93;1.83;;;;;;;19.33;33.37;97354.97;5081914;28;20214;-70
2022/04/26 14:39:51;;;;;;;2.90;2.30;;;;;;;19.26;34.18;97360.31;5073764;28;20182;-69
2022/04/26 14:42:17;;;;;;;2.40;2.20;;;;;;;19.36;34.10;97354.59;5073733;28;20524;-69
2022/04/26 14:44:43;;;;;;;5.20;2.20;;;;;;;19.63;34.76;97359.88;5081664;28;20977;-69
2022/04/26 14:47:09;;;;;;;2.50;2.30;;;;;;;19.50;34.61;97355.38;5071715;28;20448;-70
2022/04/26 14:49:35;;;;;;;2.30;2.20;;;;;;;19.49;32.77;97348.44;5070662;28;20191;-70
2022/04/26 14:52:01;;;;;;;2.10;1.97;;;;;;;19.58;33.50;97352.53;5071408;28;20194;-70
2022/04/26 14:54:27;;;;;;;2.17;1.80;;;;;;;19.75;33.39;97352.06;5071605;28;20774;-70
2022/04/26 14:56:52;;;;;;;2.67;2.40;;;;;;;19.60;31.94;97352.31;5073413;28;20516;-70
2022/04/26 14:59:19;;;;;;;2.20;2.00;;;;;;;19.92;32.45;97348.00;5079680;28;20182;-70
2022/04/26 15:01:49;;;;;;;2.23;2.03;;;;;;;19.80;32.08;97354.94;5073309;28;20706;-70
2022/04/26 15:04:16;;;;;;;2.20;2.00;;;;;;;19.94;32.18;97356.56;5074485;28;20424;-69
2022/04/26 15:06:42;;;;;;;2.50;2.30;;;;;;;20.21;32.98;97350.34;5065243;28;21003;-70
2022/04/26 15:17:31;;;;;;;2.73;2.53;;;;;;;20.56;31.92;97356.13;5070217;28;20978;-70
2022/04/26 15:19:56;;;;;;;2.43;2.23;;;;;;;20.56;31.95;97360.63;5069851;28;20425;-70
2022/04/26 15:22:23;;;;;;;2.27;2.13;;;;;;;20.42;31.13;97365.22;5072481;28;20605;-72
2022/04/26 15:24:49;;;;;;;4.50;2.83;;;;;;;20.12;31.13;97365.72;5072988;28;20214;-70
2022/04/26 15:27:15;;;;;;;3.10;2.50;;;;;;;20.08;31.82;97375.97;5072832;28;20455;-71
2022/04/26 15:29:42;;;;;;;2.70;2.50;;;;;;;19.93;32.08;97370.06;5075130;28;20420;-70
2022/04/26 15:32:08;;;;;;;3.47;2.60;;;;;;;19.78;32.13;97367.63;5072217;28;20239;-70
2022/04/26 15:34:33;;;;;;;2.93;2.73;;;;;;;19.48;32.89;97374.19;5071779;28;20421;-70
2022/04/26 15:36:59;;;;;;;3.20;2.63;;;;;;;19.32;33.39;97372.78;5072110;28;20436;-70
2022/04/26 15:39:25;;;;;;;3.77;3.20;;;;;;;19.06;33.63;97376.22;5070672;28;20269;-70
2022/04/26 15:41:51;;;;;;;3.40;2.70;;;;;;;18.80;34.87;97377.78;5072128;28;20186;-70
2022/04/26 15:44:17;;;;;;;3.90;3.50;;;;;;;18.48;36.13;97385.44;5070164;28;20622;-69